PST,Max TemperatureF,Mean TemperatureF,Min TemperatureF,Max Dew PointF,MeanDew PointF,Min DewpointF,Max Humidity, Mean Humidity, Min Humidity, Max Sea Level PressureIn, Mean Sea Level PressureIn, Min Sea Level PressureIn, Max VisibilityMiles, Mean VisibilityMiles, Min VisibilityMiles, Max Wind SpeedMPH, Mean Wind SpeedMPH, Max Gust SpeedMPH,PrecipitationIn, CloudCover, Events, WindDirDegrees
2011-11-1,50,40,30,40,34,28,100,83,66,30.55,30.48,30.34,10,3,0,10,3,13,0.00,2,Fog,38
2011-11-2,58,43,28,47,36,28,100,74,47,30.32,30.10,29.89,10,4,0,21,4,25,0.01,5,Fog-Rain,166
2011-11-3,54,47,39,43,39,34,96,75,54,29.93,29.87,29.82,10,10,7,14,6,17,T,5,Rain,169
2011-11-4,49,41,33,40,36,32,92,79,66,29.99,29.92,29.87,10,8,2,10,3,14,0.00,7,,157
2011-11-5,49,45,41,43,41,38,89,86,82,29.90,29.79,29.74,10,9,5,29,5,,0.21,8,Rain,143
2011-11-6,54,49,43,43,41,38,92,79,66,30.18,29.95,29.80,10,10,6,58,4,,0.02,7,Rain,28
2011-11-7,54,48,41,46,42,39,93,82,71,30.29,30.24,30.20,10,10,8,13,5,16,0.04,7,Rain,156
2011-11-8,53,44,34,45,39,33,100,82,64,30.29,30.27,30.23,10,5,0,8,2,14,0.02,6,Fog-Rain,144
2011-11-9,53,47,40,46,43,38,100,86,71,30.26,30.21,30.12,10,3,0,32,2,,0.00,4,Fog,349
2011-11-10,54,43,32,43,35,30,100,77,54,30.14,30.05,29.95,10,3,0,9,3,,0.00,2,Fog,161
2011-11-11,55,44,33,49,39,30,100,83,66,29.94,29.82,29.65,10,4,0,16,7,23,0.14,6,Fog-Rain,195
2011-11-12,52,45,38,45,41,35,92,80,68,29.99,29.90,29.84,10,9,5,23,11,30,0.10,7,Rain,178
2011-11-13,56,52,47,47,45,44,93,80,66,30.04,29.99,29.91,10,10,10,23,7,29,T,7,Rain,184
2011-11-14,53,50,46,46,44,40,93,82,71,30.17,30.08,30.00,10,10,7,17,6,,0.09,8,Rain,200
2011-11-15,47,40,33,41,36,30,100,88,76,30.29,30.24,30.17,10,4,0,8,1,9,T,4,Fog-Snow,2
2011-11-16,54,45,36,51,44,35,100,92,83,30.23,30.02,29.83,10,5,0,31,13,40,0.52,8,Fog-Rain,170
2011-11-17,54,48,41,52,40,37,93,80,66,29.99,29.86,29.70,10,8,2,21,10,26,0.66,7,Rain,206
2011-11-18,46,42,37,38,36,34,92,84,76,29.78,29.71,29.66,10,9,6,17,10,22,0.44,7,Rain,183
2011-11-19,46,40,34,38,35,32,96,83,70,29.86,29.81,29.74,10,9,5,15,6,18,0.11,6,Rain,178
2011-11-20,40,37,33,36,33,30,100,88,76,29.96,29.89,29.85,10,9,2,12,3,14,0.00,7,,100
2011-11-21,53,46,39,46,41,36,86,76,66,29.86,29.80,29.72,10,9,5,31,16,45,0.63,8,Rain,175
2011-11-22,60,55,50,52,49,46,89,82,75,29.72,29.65,29.53,10,8,2,29,20,40,1.01,8,Rain,175
2011-11-23,57,50,43,48,45,40,93,78,62,29.89,29.68,29.49,10,8,4,21,8,31,0.69,8,Rain,200
2011-11-24,49,44,38,44,39,36,93,82,71,30.06,29.85,29.73,10,9,3,32,13,45,0.53,7,Rain,171
2011-11-25,53,45,36,41,38,35,92,73,54,30.41,30.33,30.11,10,10,10,17,3,,T,3,,158
2011-11-26,58,51,43,44,41,39,96,76,55,30.41,30.31,30.17,10,10,9,9,2,13,T,3,Rain,100
2011-11-27,58,50,41,50,44,40,93,75,57,30.39,30.24,30.13,10,7,1,21,7,29,0.45,5,Rain,173
2011-11-28,49,42,35,42,40,34,100,86,71,30.48,30.44,30.40,10,6,2,12,4,14,0.00,5,,6
2011-11-29,47,43,38,41,40,38,100,88,76,30.37,30.33,30.30,10,7,1,20,7,26,0.01,7,Rain,190
2011-11-30,54,46,37,45,39,34,93,76,59,30.68,30.54,30.32,10,10,8,17,5,23,0.03,5,Rain,342